Time;durP1;ratioP1;P1;durP2;ratioP2;P2;SDS_P1;SDS_P2;PMS_P1;PMS_P2;Temp;Humidity;BMP_temperature;BMP_pressure;BME280_temperature;BME280_humidity;BME280_pressure;Samples;Min_cycle;Max_cycle;Signal;HPM_P1;HPM_P2
2023/03/08 00:00:34;;;;;;;14.30;7.10;;;;;;;;;;5061797;28;20201;-65
2023/03/08 00:03:01;;;;;;;15.80;8.20;;;;;;;;;;5052113;28;20257;-65
2023/03/08 00:05:27;;;;;;;15.77;7.20;;;;;;;;;;5055931;28;20173;-66
2023/03/08 00:07:52;;;;;;;15.03;7.37;;;;;;;;;;5073247;28;20268;-65
2023/03/08 00:10:18;;;;;;;15.37;7.03;;;;;;;;;;5064032;28;20259;-66
2023/03/08 00:12:44;;;;;;;15.57;6.80;;;;;;;;;;5053488;28;20181;-66
2023/03/08 00:15:10;;;;;;;14.33;8.03;;;;;;;;;;5059758;28;20185;-66
2023/03/08 00:17:37;;;;;;;13.40;7.40;;;;;;;;;;5052366;28;20173;-66
2023/03/08 00:20:07;;;;;;;17.33;8.20;;;;;;;;;;5052340;28;20428;-66
2023/03/08 00:22:36;;;;;;;16.20;8.27;;;;;;;;;;5047840;28;21174;-66
2023/03/08 00:25:02;;;;;;;16.63;8.33;;;;;;;;;;5062835;28;20226;-66
2023/03/08 00:27:27;;;;;;;17.50;8.40;;;;;;;;;;5065583;28;20288;-66
2023/03/08 00:29:52;;;;;;;17.37;8.53;;;;;;;;;;5065930;28;20184;-67
2023/03/08 00:32:18;;;;;;;19.30;9.67;;;;;;;;;;5059711;28;20184;-67
2023/03/08 00:34:45;;;;;;;15.90;9.23;;;;;;;;;;5061373;28;20252;-66
2023/03/08 00:37:11;;;;;;;16.53;9.23;;;;;;;;;;5064885;28;20614;-66
2023/03/08 00:39:37;;;;;;;18.47;9.30;;;;;;;;;;5059260;28;20178;-66
2023/03/08 00:42:02;;;;;;;19.77;9.93;;;;;;;;;;5057290;28;20216;-66
2023/03/08 00:44:27;;;;;;;21.27;8.77;;;;;;;;;;5065490;28;20177;-66
2023/03/08 00:46:53;;;;;;;21.70;9.93;;;;;;;;;;5057814;28;20197;-66
2023/03/08 00:49:18;;;;;;;19.40;9.63;;;;;;;;;;5064860;28;20233;-66
2023/03/08 00:51:43;;;;;;;19.17;9.33;;;;;;;;;;5066681;28;20189;-66
2023/03/08 00:54:09;;;;;;;20.40;9.53;;;;;;;;;;5053222;28;20665;-66
2023/03/08 00:56:34;;;;;;;19.57;10.03;;;;;;;;;;5061944;28;20316;-66
2023/03/08 00:59:00;;;;;;;16.97;9.27;;;;;;;;;;5063827;28;20208;-66
2023/03/08 01:01:25;;;;;;;22.67;9.93;;;;;;;;;;5059945;28;20205;-66
2023/03/08 01:03:50;;;;;;;20.07;9.87;;;;;;;;;;5051913;28;20197;-66
2023/03/08 01:06:16;;;;;;;17.63;9.63;;;;;;;;;;5063441;28;20243;-66
2023/03/08 01:08:41;;;;;;;17.57;9.57;;;;;;;;;;5064016;28;20193;-66
2023/03/08 01:11:14;;;;;;;23.07;10.03;;;;;;;;;;5063841;28;20621;-66
2023/03/08 01:13:40;;;;;;;16.20;9.27;;;;;;;;;;5057794;28;20204;-66
2023/03/08 01:16:18;;;;;;;18.00;9.57;;;;;;;;;;5053521;28;20232;-66
2023/03/08 01:18:43;;;;;;;19.63;9.43;;;;;;;;;;5052298;28;20173;-66
2023/03/08 01:21:09;;;;;;;19.27;10.20;;;;;;;;;;5061312;28;20326;-68
2023/03/08 01:23:34;;;;;;;19.23;9.80;;;;;;;;;;5071692;28;20184;-66
2023/03/08 01:26:02;;;;;;;18.40;9.83;;;;;;;;;;5057472;28;20197;-67
2023/03/08 01:28:28;;;;;;;18.43;9.80;;;;;;;;;;5064530;28;20189;-66
2023/03/08 01:30:59;;;;;;;17.43;9.47;;;;;;;;;;5061428;28;20177;-66
2023/03/08 01:33:24;;;;;;;18.03;9.80;;;;;;;;;;5063925;28;20227;-67
2023/03/08 01:35:50;;;;;;;20.27;9.63;;;;;;;;;;5055766;28;20692;-66
2023/03/08 01:38:15;;;;;;;20.97;10.30;;;;;;;;;;5065815;28;20216;-66
2023/03/08 01:40:41;;;;;;;20.63;10.37;;;;;;;;;;5062903;28;20181;-66
2023/03/08 01:43:27;;;;;;;15.97;9.33;;;;;;;;;;5052113;28;20200;-66
2023/03/08 01:46:04;;;;;;;22.40;10.10;;;;;;;;;;5056975;28;20212;-66
2023/03/08 01:48:34;;;;;;;20.33;9.57;;;;;;;;;;5060184;28;20204;-66
2023/03/08 01:51:01;;;;;;;20.73;11.00;;;;;;;;;;5050864;28;20216;-66
2023/03/08 01:53:27;;;;;;;18.90;10.43;;;;;;;;;;5059194;28;20632;-66
2023/03/08 01:55:54;;;;;;;25.80;11.70;;;;;;;;;;5053228;28;20319;-67
2023/03/08 01:58:20;;;;;;;20.23;10.37;;;;;;;;;;5060104;28;20239;-67
2023/03/08 02:00:45;;;;;;;19.73;11.40;;;;;;;;;;5058208;28;20247;-67
2023/03/08 02:03:11;;;;;;;17.97;10.63;;;;;;;;;;5067033;28;20177;-67
2023/03/08 02:05:38;;;;;;;24.50;13.50;;;;;;;;;;5060184;28;20286;-67
2023/03/08 02:08:04;;;;;;;22.97;12.77;;;;;;;;;;5055361;28;20191;-66
2023/03/08 02:10:30;;;;;;;26.43;13.87;;;;;;;;;;5051082;28;20185;-67
2023/03/08 02:12:55;;;;;;;25.70;13.97;;;;;;;;;;5050933;28;20559;-66
2023/03/08 02:15:21;;;;;;;24.43;13.97;;;;;;;;;;5061087;28;20215;-67
2023/03/08 02:17:47;;;;;;;24.93;13.67;;;;;;;;;;5061966;28;20181;-67
2023/03/08 02:20:28;;;;;;;27.97;14.43;;;;;;;;;;5067599;28;20537;-67
2023/03/08 02:22:53;;;;;;;21.57;13.20;;;;;;;;;;5053672;28;20181;-67
2023/03/08 02:25:22;;;;;;;23.77;13.00;;;;;;;;;;5051632;28;20268;-67
2023/03/08 02:27:48;;;;;;;29.40;14.20;;;;;;;;;;5057151;28;20177;-68
2023/03/08 02:30:16;;;;;;;26.03;14.10;;;;;;;;;;5050663;28;20723;-67
2023/03/08 02:32:41;;;;;;;25.07;13.97;;;;;;;;;;5052746;28;20177;-67
2023/03/08 02:35:08;;;;;;;24.97;14.33;;;;;;;;;;5063539;28;20189;-67
2023/03/08 02:37:34;;;;;;;29.63;14.93;;;;;;;;;;5059286;28;20695;-67
2023/03/08 02:39:59;;;;;;;26.67;14.20;;;;;;;;;;5061030;28;20561;-67
2023/03/08 02:42:25;;;;;;;24.27;13.43;;;;;;;;;;5057292;28;20462;-67
2023/03/08 02:44:50;;;;;;;23.57;13.43;;;;;;;;;;5060607;28;20709;-67
2023/03/08 02:47:16;;;;;;;23.27;12.97;;;;;;;;;;5052176;28;20205;-67
2023/03/08 02:49:41;;;;;;;23.93;13.43;;;;;;;;;;5052856;28;20189;-66
2023/03/08 02:52:07;;;;;;;20.83;12.07;;;;;;;;;;5050146;28;20213;-66
2023/03/08 02:54:32;;;;;;;25.47;13.77;;;;;;;;;;5052805;28;20189;-66
2023/03/08 02:56:57;;;;;;;24.93;13.67;;;;;;;;;;5051709;28;20638;-66
2023/03/08 02:59:23;;;;;;;24.67;14.07;;;;;;;;;;5051387;28;20210;-67
2023/03/08 03:01:48;;;;;;;26.93;14.93;;;;;;;;;;5060301;28;20213;-66
2023/03/08 03:04:14;;;;;;;24.27;13.63;;;;;;;;;;5052227;28;20186;-66
2023/03/08 03:06:39;;;;;;;25.07;13.80;;;;;;;;;;5053277;28;20566;-66
2023/03/08 03:09:06;;;;;;;24.47;12.93;;;;;;;;;;5057467;28;20185;-66
2023/03/08 03:11:31;;;;;;;22.40;13.67;;;;;;;;;;5065049;28;20394;-66
2023/03/08 03:13:58;;;;;;;24.50;14.37;;;;;;;;;;5063893;28;20653;-67
2023/03/08 03:16:24;;;;;;;26.23;14.00;;;;;;;;;;5056156;28;20189;-67
2023/03/08 03:18:51;;;;;;;23.67;13.13;;;;;;;;;;5057771;28;20196;-66
2023/03/08 03:21:16;;;;;;;32.63;14.70;;;;;;;;;;5060475;28;20191;-66
2023/03/08 03:23:42;;;;;;;23.87;13.60;;;;;;;;;;5060065;28;20665;-66
2023/03/08 03:26:20;;;;;;;23.93;14.40;;;;;;;;;;5052514;28;20182;-66
2023/03/08 03:28:46;;;;;;;27.87;14.90;;;;;;;;;;5063485;28;20518;-66
2023/03/08 03:31:15;;;;;;;27.87;14.23;;;;;;;;;;5058901;28;20199;-66
2023/03/08 03:33:41;;;;;;;36.33;16.27;;;;;;;;;;5054998;28;20216;-67
2023/03/08 03:36:09;;;;;;;26.70;14.93;;;;;;;;;;5055721;28;20544;-66
2023/03/08 03:38:35;;;;;;;27.53;15.73;;;;;;;;;;5061335;28;20573;-66
2023/03/08 03:41:09;;;;;;;33.63;17.87;;;;;;;;;;5053783;28;20182;-66
2023/03/08 03:43:35;;;;;;;36.07;19.43;;;;;;;;;;5057261;28;20196;-67
2023/03/08 03:46:03;;;;;;;39.37;19.70;;;;;;;;;;5059203;28;20636;-67
2023/03/08 03:48:30;;;;;;;41.40;19.63;;;;;;;;;;5061842;28;20181;-67
2023/03/08 03:50:57;;;;;;;42.93;21.33;;;;;;;;;;5057165;28;20684;-67
2023/03/08 03:53:23;;;;;;;41.33;20.63;;;;;;;;;;5056027;28;20189;-67
2023/03/08 03:55:49;;;;;;;45.13;22.30;;;;;;;;;;5053293;28;20193;-66
2023/03/08 03:58:15;;;;;;;49.33;22.97;;;;;;;;;;5068287;28;20690;-67
2023/03/08 04:00:40;;;;;;;50.47;22.57;;;;;;;;;;5054519;28;20258;-66
2023/03/08 04:03:06;;;;;;;50.17;23.13;;;;;;;;;;5056827;28;20181;-66
2023/03/08 04:05:31;;;;;;;52.43;23.93;;;;;;;;;;5068100;28;20196;-66
2023/03/08 04:07:57;;;;;;;49.20;22.37;;;;;;;;;;5062874;28;20185;-66
2023/03/08 04:10:23;;;;;;;52.40;22.90;;;;;;;;;;5058822;28;20200;-66
2023/03/08 04:12:49;;;;;;;60.77;26.07;;;;;;;;;;5048750;28;20559;-67
2023/03/08 04:15:14;;;;;;;79.37;24.10;;;;;;;;;;5063555;28;20193;-66
2023/03/08 04:17:40;;;;;;;82.93;24.87;;;;;;;;;;5048963;28;20209;-66
2023/03/08 04:20:06;;;;;;;51.40;21.10;;;;;;;;;;5062300;28;20643;-66
2023/03/08 04:22:32;;;;;;;58.87;24.00;;;;;;;;;;5061625;28;20223;-66
2023/03/08 04:24:57;;;;;;;46.10;20.37;;;;;;;;;;5066618;28;20189;-67
2023/03/08 04:27:22;;;;;;;59.90;23.73;;;;;;;;;;5059606;28;20178;-66
2023/03/08 04:29:48;;;;;;;56.50;22.17;;;;;;;;;;5049418;28;20269;-67
2023/03/08 04:32:13;;;;;;;50.37;22.60;;;;;;;;;;5052970;28;20601;-67
2023/03/08 04:34:39;;;;;;;69.80;23.57;;;;;;;;;;5053683;28;20304;-66
2023/03/08 04:37:04;;;;;;;57.47;21.53;;;;;;;;;;5060224;28;20255;-66
2023/03/08 04:39:30;;;;;;;53.50;21.93;;;;;;;;;;5063939;28;20664;-66
2023/03/08 04:41:55;;;;;;;61.37;23.13;;;;;;;;;;5055160;28;20189;-67
2023/03/08 04:44:20;;;;;;;58.43;23.80;;;;;;;;;;5053414;28;20215;-66
2023/03/08 04:46:46;;;;;;;62.50;22.87;;;;;;;;;;5060990;28;20256;-67
2023/03/08 04:49:11;;;;;;;45.10;20.80;;;;;;;;;;5057290;28;20934;-67
2023/03/08 04:51:36;;;;;;;58.87;24.07;;;;;;;;;;5057932;28;20216;-66
2023/03/08 04:54:03;;;;;;;55.33;23.20;;;;;;;;;;5050727;28;20185;-66
2023/03/08 04:56:29;;;;;;;51.67;21.47;;;;;;;;;;5063634;28;20197;-66
2023/03/08 04:58:54;;;;;;;60.67;23.83;;;;;;;;;;5053844;28;20186;-66
2023/03/08 05:01:21;;;;;;;56.73;21.50;;;;;;;;;;5052018;28;20249;-66
2023/03/08 05:03:51;;;;;;;68.70;23.43;;;;;;;;;;5065572;28;20184;-66
2023/03/08 05:06:17;;;;;;;64.80;23.53;;;;;;;;;;5061843;28;20222;-66
2023/03/08 05:08:43;;;;;;;71.43;23.07;;;;;;;;;;5061503;28;20196;-66
2023/03/08 05:11:09;;;;;;;51.07;22.50;;;;;;;;;;5061337;28;20196;-66
2023/03/08 05:13:37;;;;;;;54.50;22.20;;;;;;;;;;5058789;28;20194;-66
2023/03/08 05:16:05;;;;;;;66.07;23.47;;;;;;;;;;5052466;28;21056;-66
2023/03/08 05:18:30;;;;;;;64.70;22.23;;;;;;;;;;5065007;28;20193;-66
2023/03/08 05:20:58;;;;;;;52.23;21.20;;;;;;;;;;5053361;28;20192;-66
2023/03/08 05:23:24;;;;;;;50.27;22.13;;;;;;;;;;5055538;28;20647;-66
2023/03/08 05:25:52;;;;;;;65.07;22.93;;;;;;;;;;5058954;28;20192;-67
2023/03/08 05:28:17;;;;;;;46.37;21.40;;;;;;;;;;5067332;28;20201;-67
2023/03/08 05:30:43;;;;;;;52.97;21.37;;;;;;;;;;5060272;28;20687;-66
2023/03/08 05:33:08;;;;;;;59.33;21.10;;;;;;;;;;5052018;28;20232;-66
2023/03/08 05:35:33;;;;;;;46.87;19.93;;;;;;;;;;5060865;28;20189;-67
2023/03/08 05:37:59;;;;;;;55.23;21.50;;;;;;;;;;5061482;28;20208;-67
2023/03/08 05:40:24;;;;;;;57.43;21.07;;;;;;;;;;5060241;28;20209;-66
2023/03/08 05:42:50;;;;;;;54.43;21.37;;;;;;;;;;5053709;28;20656;-67
2023/03/08 05:45:15;;;;;;;48.10;20.90;;;;;;;;;;5058760;28;20234;-66
2023/03/08 05:47:40;;;;;;;52.80;21.67;;;;;;;;;;5065315;28;20188;-66
2023/03/08 05:50:06;;;;;;;48.83;20.33;;;;;;;;;;5071855;28;20627;-66
2023/03/08 05:52:32;;;;;;;42.87;18.73;;;;;;;;;;5056932;28;20615;-66
2023/03/08 05:54:57;;;;;;;44.30;20.33;;;;;;;;;;5053393;28;20213;-67
2023/03/08 05:57:23;;;;;;;46.83;19.77;;;;;;;;;;5060050;28;20477;-66
2023/03/08 05:59:48;;;;;;;45.63;20.47;;;;;;;;;;5060471;28;20288;-66
2023/03/08 06:02:13;;;;;;;49.03;20.77;;;;;;;;;;5061903;28;20197;-67
2023/03/08 06:04:39;;;;;;;45.67;21.93;;;;;;;;;;5060935;28;20683;-66
2023/03/08 06:07:04;;;;;;;48.40;20.30;;;;;;;;;;5061133;28;20194;-67
2023/03/08 06:09:30;;;;;;;49.17;21.07;;;;;;;;;;5049546;28;20208;-66
2023/03/08 06:11:55;;;;;;;49.67;22.40;;;;;;;;;;5051661;28;20502;-67
2023/03/08 06:14:21;;;;;;;46.93;19.50;;;;;;;;;;5058474;28;20188;-67
2023/03/08 06:16:47;;;;;;;47.43;20.40;;;;;;;;;;5058456;28;20209;-67
2023/03/08 06:19:13;;;;;;;59.37;20.90;;;;;;;;;;5063866;28;20211;-67
2023/03/08 06:21:39;;;;;;;53.63;20.60;;;;;;;;;;5068131;28;20188;-66
2023/03/08 06:24:04;;;;;;;45.23;20.10;;;;;;;;;;5063395;28;20208;-67
2023/03/08 06:26:30;;;;;;;48.97;20.87;;;;;;;;;;5060593;28;20619;-66
2023/03/08 06:28:55;;;;;;;50.37;20.63;;;;;;;;;;5051279;28;20193;-67
2023/03/08 06:31:21;;;;;;;47.50;19.00;;;;;;;;;;5058785;28;20244;-68
2023/03/08 06:33:46;;;;;;;49.43;20.43;;;;;;;;;;5052184;28;20305;-67
2023/03/08 06:36:17;;;;;;;50.80;20.47;;;;;;;;;;5052444;28;20242;-67
2023/03/08 06:38:43;;;;;;;46.30;19.93;;;;;;;;;;5054297;28;20189;-66
2023/03/08 06:41:10;;;;;;;44.63;18.40;;;;;;;;;;5060275;28;20191;-66
2023/03/08 06:43:36;;;;;;;45.07;19.63;;;;;;;;;;5060222;28;20199;-66
2023/03/08 06:46:10;;;;;;;48.77;20.77;;;;;;;;;;5054968;28;20186;-67
2023/03/08 06:48:36;;;;;;;69.53;28.37;;;;;;;;;;5055843;28;20180;-67
2023/03/08 06:51:02;;;;;;;56.43;22.90;;;;;;;;;;5056782;28;20222;-67
2023/03/08 06:53:27;;;;;;;56.10;23.73;;;;;;;;;;5057433;28;20194;-67
2023/03/08 06:55:53;;;;;;;46.13;21.40;;;;;;;;;;5057642;28;20220;-67
2023/03/08 06:58:18;;;;;;;51.30;20.77;;;;;;;;;;5055924;28;20259;-67
2023/03/08 07:00:44;;;;;;;55.27;22.30;;;;;;;;;;5065689;28;20231;-68
2023/03/08 07:03:11;;;;;;;56.60;23.37;;;;;;;;;;5052982;28;20204;-67
2023/03/08 07:05:36;;;;;;;53.33;22.33;;;;;;;;;;5051450;28;20189;-67
2023/03/08 07:08:02;;;;;;;51.20;21.27;;;;;;;;;;5067578;28;20211;-66
2023/03/08 07:10:27;;;;;;;56.67;23.17;;;;;;;;;;5062021;28;20185;-67
2023/03/08 07:12:53;;;;;;;63.67;23.30;;;;;;;;;;5055761;28;20201;-67
2023/03/08 07:15:21;;;;;;;55.93;22.47;;;;;;;;;;5055579;28;20181;-67
2023/03/08 07:17:48;;;;;;;44.73;21.07;;;;;;;;;;5064248;28;20207;-67
2023/03/08 07:20:15;;;;;;;53.43;21.67;;;;;;;;;;5062631;28;20226;-67
2023/03/08 07:22:42;;;;;;;50.67;21.13;;;;;;;;;;5057777;28;20185;-67
2023/03/08 07:25:09;;;;;;;43.97;19.30;;;;;;;;;;5055631;28;20648;-67
2023/03/08 07:27:34;;;;;;;49.33;20.03;;;;;;;;;;5056888;28;20186;-67
2023/03/08 07:30:00;;;;;;;45.33;19.93;;;;;;;;;;5051161;28;20203;-69
2023/03/08 07:32:28;;;;;;;50.07;21.40;;;;;;;;;;5059720;28;20196;-67
2023/03/08 07:34:54;;;;;;;45.07;20.47;;;;;;;;;;5061591;28;20268;-68
2023/03/08 07:37:20;;;;;;;43.93;19.80;;;;;;;;;;5049974;28;20704;-67
2023/03/08 07:39:45;;;;;;;45.23;19.57;;;;;;;;;;5053656;28;20205;-67
2023/03/08 07:42:10;;;;;;;45.33;21.33;;;;;;;;;;5059364;28;20199;-68
2023/03/08 07:44:36;;;;;;;47.40;20.73;;;;;;;;;;5054580;28;20238;-67
2023/03/08 07:47:02;;;;;;;42.00;19.37;;;;;;;;;;5054503;28;20227;-68
2023/03/08 07:49:28;;;;;;;43.40;18.93;;;;;;;;;;5054912;28;20619;-67
2023/03/08 07:51:53;;;;;;;40.63;19.23;;;;;;;;;;5062994;28;20196;-67
2023/03/08 07:54:19;;;;;;;38.90;18.63;;;;;;;;;;5061659;28;20572;-67
2023/03/08 07:56:44;;;;;;;41.50;18.87;;;;;;;;;;5047266;28;20205;-67
2023/03/08 07:59:10;;;;;;;42.00;19.50;;;;;;;;;;5047970;28;20191;-67
2023/03/08 08:01:35;;;;;;;40.17;19.80;;;;;;;;;;5067502;28;20218;-67
2023/03/08 08:04:01;;;;;;;43.97;19.33;;;;;;;;;;5067688;28;20569;-68
2023/03/08 08:06:27;;;;;;;42.83;18.47;;;;;;;;;;5070039;28;20225;-68
2023/03/08 08:08:54;;;;;;;33.70;16.57;;;;;;;;;;5050429;28;20236;-67
2023/03/08 08:11:20;;;;;;;39.20;16.63;;;;;;;;;;5061846;28;20235;-67
2023/03/08 08:13:46;;;;;;;33.83;17.30;;;;;;;;;;5055460;28;20188;-67
2023/03/08 08:16:12;;;;;;;36.70;18.17;;;;;;;;;;5065798;28;20683;-67
2023/03/08 08:18:38;;;;;;;37.60;19.07;;;;;;;;;;5053934;28;20209;-67
2023/03/08 08:21:09;;;;;;;34.77;17.90;;;;;;;;;;5049310;28;20227;-68
2023/03/08 08:23:38;;;;;;;40.13;17.37;;;;;;;;;;5057341;28;20208;-67
2023/03/08 08:26:06;;;;;;;33.10;17.20;;;;;;;;;;5051531;28;20265;-68
2023/03/08 08:28:31;;;;;;;32.60;17.17;;;;;;;;;;5051545;28;20231;-67
2023/03/08 08:30:59;;;;;;;35.17;17.37;;;;;;;;;;5053022;28;20193;-68
2023/03/08 08:33:26;;;;;;;35.07;16.73;;;;;;;;;;5048429;28;20293;-68
2023/03/08 08:35:52;;;;;;;32.90;17.37;;;;;;;;;;5062290;28;20673;-68
2023/03/08 08:38:17;;;;;;;30.37;16.07;;;;;;;;;;5055019;28;20204;-68
2023/03/08 08:40:42;;;;;;;31.13;15.50;;;;;;;;;;5062548;28;20652;-68
2023/03/08 08:43:08;;;;;;;29.60;15.93;;;;;;;;;;5057740;28;20276;-68
2023/03/08 08:45:33;;;;;;;32.90;15.90;;;;;;;;;;5048297;28;20193;-68
2023/03/08 08:47:58;;;;;;;29.97;15.97;;;;;;;;;;5048347;28;20259;-67
2023/03/08 08:50:24;;;;;;;31.90;16.40;;;;;;;;;;5059373;28;20265;-67
2023/03/08 08:52:49;;;;;;;31.17;15.53;;;;;;;;;;5066089;28;20183;-67
2023/03/08 08:55:15;;;;;;;27.97;15.63;;;;;;;;;;5060521;28;20270;-68
2023/03/08 08:57:40;;;;;;;29.07;15.73;;;;;;;;;;5057774;28;20196;-68
2023/03/08 09:00:08;;;;;;;30.97;16.13;;;;;;;;;;5072315;28;20295;-68
2023/03/08 09:02:33;;;;;;;28.77;15.03;;;;;;;;;;5058305;28;20582;-68
2023/03/08 09:04:59;;;;;;;29.07;15.27;;;;;;;;;;5047864;28;20272;-68
2023/03/08 09:07:24;;;;;;;30.93;15.97;;;;;;;;;;5056765;28;20189;-68
2023/03/08 09:09:52;;;;;;;27.60;14.83;;;;;;;;;;5052968;28;20575;-68
2023/03/08 09:12:19;;;;;;;31.70;16.40;;;;;;;;;;5052606;28;20192;-68
2023/03/08 09:14:45;;;;;;;29.37;15.47;;;;;;;;;;5060593;28;20224;-68
2023/03/08 09:17:10;;;;;;;29.83;15.53;;;;;;;;;;5054289;28;20251;-68
2023/03/08 09:19:36;;;;;;;29.07;15.17;;;;;;;;;;5059631;28;20185;-68
2023/03/08 09:22:02;;;;;;;33.73;15.70;;;;;;;;;;5066647;28;20600;-68
2023/03/08 09:24:27;;;;;;;31.83;17.00;;;;;;;;;;5064493;28;20196;-68
2023/03/08 09:26:53;;;;;;;31.13;16.77;;;;;;;;;;5056392;28;20187;-68
2023/03/08 09:29:18;;;;;;;29.93;15.03;;;;;;;;;;5065025;28;20181;-68
2023/03/08 09:31:44;;;;;;;28.77;16.07;;;;;;;;;;5058170;28;20181;-68
2023/03/08 09:34:13;;;;;;;31.30;16.10;;;;;;;;;;5063259;28;20715;-67
2023/03/08 09:36:38;;;;;;;31.30;15.50;;;;;;;;;;5066332;28;20684;-67
2023/03/08 09:39:05;;;;;;;28.13;15.93;;;;;;;;;;5068292;28;20191;-67
2023/03/08 09:41:45;;;;;;;28.33;15.17;;;;;;;;;;5069240;28;20181;-67
2023/03/08 09:44:13;;;;;;;28.03;14.20;;;;;;;;;;5057771;28;20276;-67
2023/03/08 09:46:47;;;;;;;31.40;15.00;;;;;;;;;;5051673;28;20193;-67
2023/03/08 09:49:17;;;;;;;27.33;14.30;;;;;;;;;;5063514;28;20212;-68
2023/03/08 09:51:46;;;;;;;29.57;13.90;;;;;;;;;;5070496;28;20266;-67
2023/03/08 09:54:17;;;;;;;26.30;14.70;;;;;;;;;;5070839;28;20181;-67
2023/03/08 09:56:49;;;;;;;23.97;13.57;;;;;;;;;;5056026;28;20304;-68
2023/03/08 09:59:22;;;;;;;28.23;13.90;;;;;;;;;;5055466;28;20295;-67
2023/03/08 10:02:09;;;;;;;26.77;15.10;;;;;;;;;;5070176;28;20244;-67
2023/03/08 10:04:48;;;;;;;26.03;13.80;;;;;;;;;;5066957;28;20263;-67
2023/03/08 10:07:41;;;;;;;22.73;12.40;;;;;;;;;;5077429;28;20202;-67
2023/03/08 10:10:28;;;;;;;24.30;12.37;;;;;;;;;;5063499;28;20750;-67
2023/03/08 10:13:04;;;;;;;21.37;12.00;;;;;;;;;;5061751;28;20181;-68
2023/03/08 10:15:32;;;;;;;21.33;10.80;;;;;;;;;;5064495;28;20238;-67
2023/03/08 10:18:16;;;;;;;20.57;11.27;;;;;;;;;;5059684;28;20196;-67
2023/03/08 10:20:42;;;;;;;19.83;11.07;;;;;;;;;;5060828;28;20275;-68
2023/03/08 10:23:13;;;;;;;20.73;10.67;;;;;;;;;;5054425;28;20204;-67
2023/03/08 10:25:39;;;;;;;21.57;11.67;;;;;;;;;;5052430;28;20796;-67
2023/03/08 10:28:11;;;;;;;18.37;10.87;;;;;;;;;;5052613;28;20276;-67
2023/03/08 10:30:51;;;;;;;20.30;10.77;;;;;;;;;;5057134;28;20233;-67
2023/03/08 10:33:20;;;;;;;18.47;10.33;;;;;;;;;;5065073;28;20692;-68
2023/03/08 10:36:11;;;;;;;18.43;11.37;;;;;;;;;;5060681;28;20185;-67
2023/03/08 10:38:37;;;;;;;21.17;11.20;;;;;;;;;;5056223;28;20181;-68
2023/03/08 10:41:15;;;;;;;18.00;10.90;;;;;;;;;;5054838;28;20195;-67
2023/03/08 10:43:41;;;;;;;18.47;10.37;;;;;;;;;;5070806;28;20193;-67
2023/03/08 10:46:20;;;;;;;16.93;10.53;;;;;;;;;;5065408;28;20279;-67
2023/03/08 10:48:47;;;;;;;16.57;9.90;;;;;;;;;;5064954;28;20578;-67
2023/03/08 10:51:21;;;;;;;14.87;9.63;;;;;;;;;;5058402;28;20267;-67
2023/03/08 10:53:53;;;;;;;19.97;9.93;;;;;;;;;;5070650;28;20188;-68
2023/03/08 10:56:33;;;;;;;17.00;9.20;;;;;;;;;;5057139;28;20223;-67
2023/03/08 10:58:59;;;;;;;16.50;9.87;;;;;;;;;;5056118;28;20563;-67
2023/03/08 11:01:33;;;;;;;16.07;9.53;;;;;;;;;;5065366;28;20209;-68
2023/03/08 11:04:03;;;;;;;19.60;10.07;;;;;;;;;;5059245;28;20219;-67
2023/03/08 11:06:29;;;;;;;16.23;8.87;;;;;;;;;;5062538;28;20196;-68
2023/03/08 11:08:58;;;;;;;16.53;9.37;;;;;;;;;;5063879;28;20657;-68
2023/03/08 11:11:24;;;;;;;15.67;9.63;;;;;;;;;;5056401;28;20197;-68
2023/03/08 11:13:51;;;;;;;17.47;9.77;;;;;;;;;;5058626;28;20212;-68
2023/03/08 11:16:35;;;;;;;17.10;9.97;;;;;;;;;;5052803;28;20231;-68
2023/03/08 11:19:06;;;;;;;16.27;10.53;;;;;;;;;;5059085;28;20197;-67
2023/03/08 11:21:52;;;;;;;18.50;10.70;;;;;;;;;;5054792;28;20197;-67
2023/03/08 11:24:26;;;;;;;19.00;10.40;;;;;;;;;;5057922;28;20613;-68
2023/03/08 11:27:26;;;;;;;18.10;10.57;;;;;;;;;;5064313;28;20254;-67
2023/03/08 11:30:12;;;;;;;20.77;11.20;;;;;;;;;;5062982;28;20663;-68
2023/03/08 11:32:49;;;;;;;20.75;11.75;;;;;;;;;;5047837;28;20572;-68
2023/03/08 11:35:46;;;;;;;20.43;11.77;;;;;;;;;;5050103;28;20187;-68
2023/03/08 11:38:23;;;;;;;22.85;12.23;;;;;;;;;;5034608;28;20188;-69
2023/03/08 11:41:08;;;;;;;21.55;12.02;;;;;;;;;;5062880;28;20238;-68
2023/03/08 11:43:59;;;;;;;22.53;13.20;;;;;;;;;;5068290;28;20195;-68
2023/03/08 11:46:49;;;;;;;28.43;14.07;;;;;;;;;;5053344;28;20181;-67
2023/03/08 11:49:58;;;;;;;24.73;13.37;;;;;;;;;;5063404;28;20220;-67
2023/03/08 11:52:46;;;;;;;23.45;12.77;;;;;;;;;;5061254;28;20563;-67
2023/03/08 11:55:59;;;;;;;27.17;13.97;;;;;;;;;;5053620;28;20200;-67
2023/03/08 11:58:51;;;;;;;26.90;14.57;;;;;;;;;;5064897;28;20714;-67
2023/03/08 12:01:22;;;;;;;31.63;15.50;;;;;;;;;;5054410;28;20255;-67
2023/03/08 12:03:54;;;;;;;33.00;17.20;;;;;;;;;;5061044;28;20652;-67
2023/03/08 12:06:31;;;;;;;28.73;15.55;;;;;;;;;;5057022;28;20169;-68
2023/03/08 12:09:17;;;;;;;29.17;16.27;;;;;;;;;;5054000;28;20535;-67
2023/03/08 12:11:52;;;;;;;29.63;14.07;;;;;;;;;;5058199;28;20213;-68
2023/03/08 12:14:22;;;;;;;27.50;14.63;;;;;;;;;;5053976;28;20193;-67
2023/03/08 12:17:04;;;;;;;32.03;15.77;;;;;;;;;;5061942;28;20667;-66
2023/03/08 12:19:34;;;;;;;25.07;14.83;;;;;;;;;;5051240;28;20664;-68
2023/03/08 12:22:22;;;;;;;28.83;14.27;;;;;;;;;;5051961;28;20577;-69
2023/03/08 12:24:57;;;;;;;25.20;14.00;;;;;;;;;;5056970;28;20242;-68
2023/03/08 12:27:44;;;;;;;24.10;14.03;;;;;;;;;;5058335;28;20188;-68
2023/03/08 12:30:09;;;;;;;27.07;14.53;;;;;;;;;;5058555;28;20193;-68
2023/03/08 12:32:37;;;;;;;25.20;14.10;;;;;;;;;;5052628;28;20623;-68
2023/03/08 12:35:22;;;;;;;26.10;13.93;;;;;;;;;;5049344;28;20351;-68
2023/03/08 12:38:14;;;;;;;24.97;13.63;;;;;;;;;;5065019;28;20196;-68
2023/03/08 12:40:49;;;;;;;28.57;15.27;;;;;;;;;;5066273;28;20196;-69
2023/03/08 12:43:18;;;;;;;24.37;14.03;;;;;;;;;;5049913;28;20308;-68
2023/03/08 12:46:00;;;;;;;25.73;14.57;;;;;;;;;;5054198;28;20516;-66
2023/03/08 12:48:30;;;;;;;20.80;13.23;;;;;;;;;;5068342;28;20271;-67
2023/03/08 12:50:56;;;;;;;22.07;12.77;;;;;;;;;;5063492;28;20192;-68
2023/03/08 12:53:33;;;;;;;21.80;12.70;;;;;;;;;;5068514;28;20196;-66
2023/03/08 12:56:23;;;;;;;19.63;11.80;;;;;;;;;;5054474;28;20201;-68
2023/03/08 12:58:54;;;;;;;18.50;11.53;;;;;;;;;;5056584;28;20224;-68
2023/03/08 13:01:36;;;;;;;19.10;11.03;;;;;;;;;;5062562;28;20288;-68
2023/03/08 13:04:04;;;;;;;19.03;10.13;;;;;;;;;;5049107;28;20535;-69
2023/03/08 13:07:05;;;;;;;16.93;9.93;;;;;;;;;;5072517;28;20286;-68
2023/03/08 13:09:32;;;;;;;19.60;10.60;;;;;;;;;;5070184;28;20224;-67
2023/03/08 13:12:15;;;;;;;19.03;10.73;;;;;;;;;;5055516;28;20189;-66
2023/03/08 13:14:41;;;;;;;19.47;11.30;;;;;;;;;;5048360;28;20184;-66
2023/03/08 13:17:29;;;;;;;20.63;11.00;;;;;;;;;;5047698;28;20266;-68
2023/03/08 13:19:56;;;;;;;22.00;11.73;;;;;;;;;;5062872;28;20185;-67
2023/03/08 13:22:39;;;;;;;19.57;11.40;;;;;;;;;;5049231;28;20201;-68
2023/03/08 13:25:14;;;;;;;19.50;11.87;;;;;;;;;;5053048;28;20249;-68
2023/03/08 13:27:59;;;;;;;20.50;12.37;;;;;;;;;;5051282;28;20213;-67
2023/03/08 13:30:32;;;;;;;18.77;11.67;;;;;;;;;;5048652;28;20185;-67
2023/03/08 13:32:59;;;;;;;21.73;12.20;;;;;;;;;;5061630;28;20228;-67
2023/03/08 13:35:24;;;;;;;19.80;11.67;;;;;;;;;;5053714;28;20193;-68
2023/03/08 13:37:55;;;;;;;22.77;12.47;;;;;;;;;;5053847;28;20299;-67
2023/03/08 13:40:22;;;;;;;22.43;13.83;;;;;;;;;;5071268;28;20264;-67
2023/03/08 13:42:54;;;;;;;28.60;16.07;;;;;;;;;;5054788;28;20515;-67
2023/03/08 13:45:20;;;;;;;27.10;15.70;;;;;;;;;;5065664;28;20181;-67
2023/03/08 13:47:46;;;;;;;31.23;16.87;;;;;;;;;;5050953;28;20189;-67
2023/03/08 13:50:19;;;;;;;33.27;17.20;;;;;;;;;;5059547;28;20189;-68
2023/03/08 13:52:45;;;;;;;31.60;17.10;;;;;;;;;;5066090;28;20264;-68
2023/03/08 13:55:19;;;;;;;34.77;18.53;;;;;;;;;;5060122;28;20279;-67
2023/03/08 13:57:50;;;;;;;31.97;18.33;;;;;;;;;;5053303;28;20598;-67
2023/03/08 14:00:24;;;;;;;31.73;18.93;;;;;;;;;;5062279;28;20228;-67
2023/03/08 14:02:50;;;;;;;35.87;20.57;;;;;;;;;;5060833;28;20200;-68
2023/03/08 14:05:25;;;;;;;33.57;18.60;;;;;;;;;;5052826;28;20185;-69
2023/03/08 14:08:01;;;;;;;33.00;18.70;;;;;;;;;;5064189;28;20678;-69
2023/03/08 14:10:49;;;;;;;33.70;19.20;;;;;;;;;;5063959;28;20291;-68
2023/03/08 14:13:23;;;;;;;31.23;17.43;;;;;;;;;;5064919;28;20200;-69
2023/03/08 14:15:57;;;;;;;32.27;18.10;;;;;;;;;;5055918;28;20185;-69
2023/03/08 14:18:34;;;;;;;31.90;16.90;;;;;;;;;;5063887;28;20189;-69
2023/03/08 14:21:00;;;;;;;30.83;17.20;;;;;;;;;;5050648;28;20313;-69
2023/03/08 14:23:26;;;;;;;31.80;16.40;;;;;;;;;;5055300;28;20180;-68
2023/03/08 14:25:56;;;;;;;32.23;15.73;;;;;;;;;;5063859;28;20335;-69
2023/03/08 14:29:01;;;;;;;27.37;14.80;;;;;;;;;;5035743;28;20193;-68
2023/03/08 14:31:28;;;;;;;27.20;14.30;;;;;;;;;;5057441;28;20283;-67